Ash Fork, Arizona
Current Conditions -  °F | °C
As of 12:53 AM on Friday 28 Nov 2014 (Local Time) from KPRC Reporting Station
Clear Clear  
Wind Chill: 39°   Ceiling: Unl
Heat Index: 39°   Visibility: 10mi
Dew Point: 16°   Wind: 3mph
Humidity: 39%   Direction: 220°SW
Pressure: 30.26"   Gusts: NA
Location:  35.23°N, 112.49°W
Report Text: KPRC 280753Z AUTO 22003KT 10SM CLR 04/M09 A3026 RMK AO2 SLP201 T00391089
Loading
Personal Weather Stations






























Interactive Weather Map New forecast layout! Learn more

10-Day Weather Forecast

Advertisements
Track Severe Weather on mobile